Time;durP1;ratioP1;P1;durP2;ratioP2;P2;SDS_P1;SDS_P2;PMS_P1;PMS_P2;Temp;Humidity;BMP_temperature;BMP_pressure;BME280_temperature;BME280_humidity;BME280_pressure;Samples;Min_cycle;Max_cycle;Signal;HPM_P1;HPM_P2
2022/12/03 00:00:11;;;;;;;;;;;;;;;6.64;100.00;100732.19;6247001;23;19982;-80
2022/12/03 00:02:36;;;;;;;;;;;;;;;6.61;100.00;100727.19;6248371;23;19912;-79
2022/12/03 00:05:01;;;;;;;;;;;;;;;6.58;100.00;100727.44;6248188;23;19942;-79
2022/12/03 00:07:27;;;;;;;;;;;;;;;6.26;100.00;100721.47;6247778;23;20331;-81
2022/12/03 00:09:52;;;;;;;;;;;;;;;6.18;100.00;100718.63;6248422;23;19911;-80
2022/12/03 00:12:17;;;;;;;;;;;;;;;6.41;100.00;100728.03;6248486;23;20323;-81
2022/12/03 00:14:43;;;;;;;;;;;;;;;6.31;100.00;100729.78;6247964;23;19927;-80
2022/12/03 00:17:08;;;;;;;;;;;;;;;6.34;100.00;100723.41;6221771;23;19919;-81
2022/12/03 00:19:33;;;;;;;;;;;;;;;6.26;100.00;100715.34;6247926;23;20350;-80
2022/12/03 00:21:59;;;;;;;;;;;;;;;6.14;100.00;100718.06;6248159;23;19919;-81
2022/12/03 00:24:24;;;;;;;;;;;;;;;6.29;100.00;100718.56;6247622;23;19911;-79
2022/12/03 00:26:49;;;;;;;;;;;;;;;6.14;100.00;100706.69;6247570;23;19997;-80
2022/12/03 00:29:15;;;;;;;;;;;;;;;6.15;100.00;100703.09;6247294;23;19915;-79
2022/12/03 00:31:41;;;;;;;;;;;;;;;6.27;100.00;100701.22;6247092;23;20319;-80
2022/12/03 00:34:07;;;;;;;;;;;;;;;6.05;100.00;100702.22;6247216;23;19919;-80
2022/12/03 00:36:32;;;;;;;;;;;;;;;6.35;100.00;100702.25;6247219;23;19912;-81
2022/12/03 00:38:57;;;;;;;;;;;;;;;5.98;100.00;100698.41;6220341;23;19939;-81
2022/12/03 00:41:23;;;;;;;;;;;;;;;6.09;100.00;100693.09;6247219;23;19922;-80
2022/12/03 00:43:48;;;;;;;;;;;;;;;6.25;100.00;100698.72;6247363;23;19908;-80
2022/12/03 00:46:14;;;;;;;;;;;;;;;6.02;100.00;100697.22;6247220;23;19938;-80
2022/12/03 00:48:39;;;;;;;;;;;;;;;6.23;100.00;100692.78;6247041;23;20006;-80
2022/12/03 00:51:05;;;;;;;;;;;;;;;6.14;100.00;100696.16;6246967;23;20030;-80
2022/12/03 00:53:30;;;;;;;;;;;;;;;6.21;100.00;100702.59;6247080;23;19911;-81
2022/12/03 00:55:55;;;;;;;;;;;;;;;6.16;100.00;100699.53;6246845;23;19918;-79
2022/12/03 00:58:22;;;;;;;;;;;;;;;6.20;100.00;100703.53;6247056;23;19912;-81
2022/12/03 01:00:47;;;;;;;;;;;;;;;6.09;100.00;100695.72;6247071;23;19943;-79
2022/12/03 01:03:13;;;;;;;;;;;;;;;6.00;100.00;100701.78;6247342;23;19994;-81
2022/12/03 01:05:38;;;;;;;;;;;;;;;6.21;100.00;100699.94;6246597;23;19938;-80
2022/12/03 01:08:03;;;;;;;;;;;;;;;5.91;100.00;100694.63;6245405;23;19935;-80
2022/12/03 01:10:29;;;;;;;;;;;;;;;5.99;100.00;100700.09;6246506;23;19963;-81
2022/12/03 01:12:54;;;;;;;;;;;;;;;6.00;100.00;100699.16;6219337;23;19912;-80
2022/12/03 01:15:19;;;;;;;;;;;;;;;6.06;100.00;100698.63;6246552;23;19911;-81
2022/12/03 01:17:48;;;;;;;;;;;;;;;6.21;100.00;100697.31;6246330;23;19912;-80
2022/12/03 01:20:13;;;;;;;;;;;;;;;6.14;100.00;100698.78;6246119;23;20212;-80
2022/12/03 01:22:38;;;;;;;;;;;;;;;6.19;100.00;100694.84;6246256;23;19938;-80
2022/12/03 01:25:04;;;;;;;;;;;;;;;6.29;100.00;100688.78;6246260;23;19915;-79
2022/12/03 01:27:29;;;;;;;;;;;;;;;6.03;100.00;100683.91;6246262;23;20211;-80
2022/12/03 01:29:55;;;;;;;;;;;;;;;6.08;100.00;100683.53;6246760;23;20220;-80
2022/12/03 01:32:20;;;;;;;;;;;;;;;6.23;100.00;100685.69;6246470;23;19911;-80
2022/12/03 01:34:50;;;;;;;;;;;;;;;6.33;100.00;100685.75;6246483;23;19907;-79
2022/12/03 01:37:16;;;;;;;;;;;;;;;6.52;100.00;100685.84;6246386;23;19911;-81
2022/12/03 01:39:41;;;;;;;;;;;;;;;6.31;100.00;100686.84;6247118;23;20322;-80
2022/12/03 01:42:08;;;;;;;;;;;;;;;6.42;100.00;100690.25;6246445;23;19915;-80
2022/12/03 01:44:35;;;;;;;;;;;;;;;6.25;100.00;100688.19;6246438;23;19915;-80
2022/12/03 01:47:01;;;;;;;;;;;;;;;6.47;100.00;100684.56;6246449;23;19915;-80
2022/12/03 01:49:33;;;;;;;;;;;;;;;6.27;100.00;100680.16;6246473;23;20327;-80
2022/12/03 01:51:59;;;;;;;;;;;;;;;6.30;100.00;100685.19;6246858;23;19935;-80
2022/12/03 01:54:26;;;;;;;;;;;;;;;6.20;100.00;100683.31;6247517;23;19938;-79
2022/12/03 01:56:52;;;;;;;;;;;;;;;6.32;100.00;100686.72;6248004;23;20268;-79
2022/12/03 01:59:18;;;;;;;;;;;;;;;6.15;100.00;100687.31;6247946;23;19920;-80
2022/12/03 02:01:44;;;;;;;;;;;;;;;6.24;100.00;100690.00;6247690;23;20104;-80
2022/12/03 02:04:14;;;;;;;;;;;;;;;6.30;100.00;100686.00;6247182;23;19911;-81
2022/12/03 02:06:46;;;;;;;;;;;;;;;6.42;100.00;100684.97;6247146;23;19918;-79
2022/12/03 02:09:12;;;;;;;;;;;;;;;6.52;100.00;100685.84;6246921;23;19911;-80
2022/12/03 02:11:39;;;;;;;;;;;;;;;6.48;100.00;100689.72;6220998;23;19990;-79
2022/12/03 02:14:07;;;;;;;;;;;;;;;6.37;100.00;100678.41;6247815;23;19969;-82
2022/12/03 02:16:34;;;;;;;;;;;;;;;6.67;100.00;100679.25;6247839;23;19991;-80
2022/12/03 02:19:00;;;;;;;;;;;;;;;6.58;100.00;100685.31;6248884;23;20285;-81
2022/12/03 02:21:26;;;;;;;;;;;;;;;6.87;100.00;100680.13;6221469;23;19907;-79
2022/12/03 02:24:02;;;;;;;;;;;;;;;6.59;100.00;100671.19;6250121;23;19907;-81
2022/12/03 02:26:28;;;;;;;;;;;;;;;6.54;100.00;100675.16;6255434;23;19918;-80
2022/12/03 02:28:54;;;;;;;;;;;;;;;6.61;100.00;100671.88;6235142;23;19908;-79
2022/12/03 02:31:19;;;;;;;;;;;;;;;6.42;100.00;100673.59;6263609;23;19911;-79
2022/12/03 02:33:45;;;;;;;;;;;;;;;6.56;100.00;100670.63;6239931;23;19912;-80
2022/12/03 02:36:11;;;;;;;;;;;;;;;6.54;100.00;100662.84;6264596;23;19911;-81
2022/12/03 02:38:37;;;;;;;;;;;;;;;6.50;100.00;100666.69;6258948;23;20200;-80
2022/12/03 02:41:05;;;;;;;;;;;;;;;6.51;100.00;100657.84;6249094;23;19926;-79
2022/12/03 02:43:30;;;;;;;;;;;;;;;6.34;100.00;100658.47;6249790;23;19986;-80
2022/12/03 02:45:58;;;;;;;;;;;;;;;6.19;100.00;100658.00;6249149;23;20280;-82
2022/12/03 02:48:23;;;;;;;;;;;;;;;6.18;100.00;100663.38;6248374;23;19966;-80
2022/12/03 02:50:50;;;;;;;;;;;;;;;6.23;100.00;100659.38;6246123;23;19911;-81
2022/12/03 02:53:17;;;;;;;;;;;;;;;6.24;100.00;100660.22;6219179;23;20262;-80
2022/12/03 02:55:44;;;;;;;;;;;;;;;6.61;100.00;100663.16;6245979;23;19918;-80
2022/12/03 02:58:09;;;;;;;;;;;;;;;6.62;100.00;100663.03;6220126;23;20309;-80
2022/12/03 03:00:36;;;;;;;;;;;;;;;6.60;100.00;100661.47;6247638;23;19934;-82
2022/12/03 03:03:02;;;;;;;;;;;;;;;6.47;100.00;100659.06;6246204;23;20234;-81
2022/12/03 03:05:27;;;;;;;;;;;;;;;6.66;100.00;100661.78;6245733;23;19911;-81
2022/12/03 03:07:53;;;;;;;;;;;;;;;6.62;100.00;100655.13;6245812;23;20350;-81
2022/12/03 03:10:22;;;;;;;;;;;;;;;6.82;100.00;100649.91;6219926;23;19990;-79
2022/12/03 03:12:48;;;;;;;;;;;;;;;6.86;100.00;100661.84;6246780;23;19934;-81
2022/12/03 03:15:13;;;;;;;;;;;;;;;6.83;100.00;100662.13;6246280;23;19911;-80
2022/12/03 03:17:39;;;;;;;;;;;;;;;6.65;100.00;100652.22;6246146;23;19923;-79
2022/12/03 03:20:05;;;;;;;;;;;;;;;6.81;100.00;100650.88;6245810;23;19915;-80
2022/12/03 03:22:35;;;;;;;;;;;;;;;6.79;100.00;100651.03;6250019;23;19922;-81
2022/12/03 03:25:04;;;;;;;;;;;;;;;6.79;100.00;100644.91;6259511;23;19947;-81
2022/12/03 03:27:29;;;;;;;;;;;;;;;6.74;100.00;100648.78;6199527;23;20283;-80
2022/12/03 03:29:56;;;;;;;;;;;;;;;6.92;100.00;100645.50;6246074;23;19917;-80
2022/12/03 03:32:22;;;;;;;;;;;;;;;6.70;100.00;100651.81;6246316;23;19915;-80
2022/12/03 03:34:47;;;;;;;;;;;;;;;6.68;100.00;100643.22;6246804;23;19938;-81
2022/12/03 03:37:13;;;;;;;;;;;;;;;6.76;100.00;100646.81;6248070;23;20316;-80
2022/12/03 03:39:38;;;;;;;;;;;;;;;6.84;100.00;100654.06;6248535;23;19922;-79
2022/12/03 03:42:04;;;;;;;;;;;;;;;6.82;100.00;100644.63;6247876;23;19907;-79
2022/12/03 03:44:29;;;;;;;;;;;;;;;6.89;100.00;100640.50;6247995;23;19923;-80
2022/12/03 03:46:56;;;;;;;;;;;;;;;6.54;100.00;100643.56;6247712;23;19912;-79
2022/12/03 03:49:21;;;;;;;;;;;;;;;6.64;100.00;100647.06;6248164;23;19911;-80
2022/12/03 03:51:47;;;;;;;;;;;;;;;6.58;100.00;100648.44;6247679;23;20362;-79
2022/12/03 03:54:12;;;;;;;;;;;;;;;6.50;100.00;100640.38;6247379;23;19911;-80
2022/12/03 03:56:38;;;;;;;;;;;;;;;6.46;100.00;100638.16;6247758;23;20239;-80
2022/12/03 03:59:03;;;;;;;;;;;;;;;6.38;100.00;100641.44;6247650;23;19914;-81
2022/12/03 04:01:29;;;;;;;;;;;;;;;6.37;100.00;100629.25;6247534;23;19921;-80
2022/12/03 04:03:56;;;;;;;;;;;;;;;6.42;100.00;100632.31;6220866;23;20315;-79
2022/12/03 04:06:21;;;;;;;;;;;;;;;6.33;100.00;100632.28;6247778;23;19911;-80
2022/12/03 04:08:47;;;;;;;;;;;;;;;6.44;100.00;100635.66;6247496;23;20239;-79
2022/12/03 04:14:04;;;;;;;;;;;;;;;6.33;100.00;100619.94;6212385;23;20279;-81
2022/12/03 04:16:29;;;;;;;;;;;;;;;6.15;100.00;100630.25;6247528;23;20005;-80
2022/12/03 04:18:54;;;;;;;;;;;;;;;6.28;100.00;100622.16;6247407;23;19930;-81
2022/12/03 04:24:06;;;;;;;;;;;;;;;6.16;100.00;100624.00;6247385;23;19907;-80
2022/12/03 04:29:19;;;;;;;;;;;;;;;6.21;100.00;100624.47;6247335;23;19911;-79
2022/12/03 04:37:13;;;;;;;;;;;;;;;6.24;100.00;100615.47;6247185;23;20342;-79
2022/12/03 04:39:38;;;;;;;;;;;;;;;6.13;100.00;100610.31;6220358;23;19930;-81
2022/12/03 04:42:04;;;;;;;;;;;;;;;6.21;100.00;100618.38;6247036;23;19935;-80
2022/12/03 04:44:34;;;;;;;;;;;;;;;6.23;100.00;100619.09;6246856;23;19907;-79
2022/12/03 04:47:08;;;;;;;;;;;;;;;6.31;100.00;100618.41;6247173;23;19916;-79
2022/12/03 04:49:34;;;;;;;;;;;;;;;6.45;100.00;100616.25;6247069;23;20243;-80
2022/12/03 04:51:59;;;;;;;;;;;;;;;6.25;100.00;100614.50;6246938;23;19915;-79
2022/12/03 04:54:26;;;;;;;;;;;;;;;6.10;100.00;100615.81;6246872;23;19981;-80
2022/12/03 04:56:51;;;;;;;;;;;;;;;6.31;100.00;100613.16;6246880;23;20295;-80
2022/12/03 04:59:16;;;;;;;;;;;;;;;6.35;100.00;100612.75;6247047;23;19911;-80
2022/12/03 05:01:42;;;;;;;;;;;;;;;6.32;100.00;100605.13;6246660;23;19979;-80
2022/12/03 05:04:07;;;;;;;;;;;;;;;6.45;100.00;100616.25;6246923;23;19911;-80
2022/12/03 05:06:33;;;;;;;;;;;;;;;6.48;100.00;100615.16;6246802;23;19973;-81
2022/12/03 05:08:58;;;;;;;;;;;;;;;6.54;100.00;100604.91;6246647;23;19969;-80
2022/12/03 05:11:24;;;;;;;;;;;;;;;6.38;100.00;100607.22;6246959;23;19911;-81
2022/12/03 05:13:51;;;;;;;;;;;;;;;6.48;100.00;100613.34;6246498;23;19950;-80
2022/12/03 05:16:16;;;;;;;;;;;;;;;6.21;100.00;100608.69;6246971;23;19912;-81
2022/12/03 05:18:41;;;;;;;;;;;;;;;6.16;100.00;100604.78;6246309;23;19994;-79
2022/12/03 05:21:07;;;;;;;;;;;;;;;6.29;100.00;100604.56;6246587;23;19951;-81
2022/12/03 05:23:32;;;;;;;;;;;;;;;6.32;100.00;100604.28;6246652;23;20323;-80
2022/12/03 05:25:57;;;;;;;;;;;;;;;6.31;100.00;100602.63;6246637;23;19966;-80
2022/12/03 05:28:23;;;;;;;;;;;;;;;6.40;100.00;100600.00;6246564;23;19912;-81
2022/12/03 05:30:48;;;;;;;;;;;;;;;6.24;100.00;100599.69;6253992;23;19986;-80
2022/12/03 05:33:14;;;;;;;;;;;;;;;6.30;100.00;100607.03;6246504;23;19911;-81
2022/12/03 05:35:39;;;;;;;;;;;;;;;6.30;100.00;100603.59;6246437;23;19994;-79
2022/12/03 05:38:05;;;;;;;;;;;;;;;6.26;100.00;100604.81;6246431;23;19911;-79
2022/12/03 05:40:30;;;;;;;;;;;;;;;6.30;100.00;100596.50;6246566;23;20242;-80
2022/12/03 05:42:55;;;;;;;;;;;;;;;6.01;100.00;100601.66;6246685;23;19911;-81
2022/12/03 05:45:25;;;;;;;;;;;;;;;6.04;100.00;100600.56;6246356;23;19959;-80
2022/12/03 05:47:51;;;;;;;;;;;;;;;6.22;100.00;100588.47;6246344;23;20287;-80
2022/12/03 05:50:17;;;;;;;;;;;;;;;6.08;100.00;100586.19;6246280;23;19910;-79
2022/12/03 05:52:42;;;;;;;;;;;;;;;6.32;100.00;100594.59;6246728;23;19990;-81
2022/12/03 05:55:08;;;;;;;;;;;;;;;6.07;100.00;100590.59;6246183;23;19912;-79
2022/12/03 05:57:34;;;;;;;;;;;;;;;5.95;100.00;100589.03;6219087;23;19919;-80
2022/12/03 05:59:59;;;;;;;;;;;;;;;5.93;100.00;100595.41;6243165;23;20010;-80
2022/12/03 06:02:24;;;;;;;;;;;;;;;5.83;100.00;100591.84;6244385;23;20277;-82
2022/12/03 06:04:50;;;;;;;;;;;;;;;5.96;100.00;100593.34;6244094;23;19911;-79
2022/12/03 06:07:15;;;;;;;;;;;;;;;5.97;100.00;100589.72;6244921;23;19911;-81
2022/12/03 06:09:41;;;;;;;;;;;;;;;6.09;100.00;100593.97;6244532;23;19915;-80
2022/12/03 06:12:07;;;;;;;;;;;;;;;6.07;100.00;100590.59;6244490;23;19911;-78
2022/12/03 06:14:34;;;;;;;;;;;;;;;6.04;100.00;100595.28;6245176;23;19945;-78
2022/12/03 06:17:00;;;;;;;;;;;;;;;5.99;100.00;100598.34;6245876;23;19994;-79
2022/12/03 06:19:27;;;;;;;;;;;;;;;5.84;100.00;100590.88;6246269;23;20350;-78
2022/12/03 06:21:55;;;;;;;;;;;;;;;6.17;100.00;100590.66;6246244;23;19911;-79
2022/12/03 06:24:21;;;;;;;;;;;;;;;6.14;100.00;100588.28;6245818;23;19931;-80
2022/12/03 06:26:47;;;;;;;;;;;;;;;6.07;100.00;100601.13;6251271;23;19908;-81
2022/12/03 06:29:12;;;;;;;;;;;;;;;5.99;100.00;100589.59;6262806;23;19959;-78
2022/12/03 06:31:38;;;;;;;;;;;;;;;6.15;100.00;100592.59;6252858;23;19915;-80
2022/12/03 06:34:03;;;;;;;;;;;;;;;6.01;100.00;100596.41;6245397;23;20399;-80
2022/12/03 06:36:28;;;;;;;;;;;;;;;6.04;100.00;100600.56;6246088;23;19919;-79
2022/12/03 06:38:54;;;;;;;;;;;;;;;6.06;100.00;100596.84;6243294;23;19957;-78
2022/12/03 06:41:19;;;;;;;;;;;;;;;5.98;100.00;100599.28;6244591;23;19912;-80
2022/12/03 06:43:45;;;;;;;;;;;;;;;6.02;100.00;100597.25;6245286;23;19916;-77
2022/12/03 06:46:10;;;;;;;;;;;;;;;6.25;100.00;100590.84;6245779;23;19937;-79
2022/12/03 06:48:36;;;;;;;;;;;;;;;6.20;100.00;100595.63;6218618;23;19986;-79
2022/12/03 06:51:01;;;;;;;;;;;;;;;6.06;100.00;100603.91;6245154;23;19912;-81
2022/12/03 06:53:26;;;;;;;;;;;;;;;5.97;100.00;100595.00;6218054;23;20430;-80
2022/12/03 06:55:52;;;;;;;;;;;;;;;5.96;100.00;100589.88;6245585;23;20254;-81
2022/12/03 06:58:17;;;;;;;;;;;;;;;6.03;100.00;100596.28;6245095;23;19907;-78
2022/12/03 07:00:42;;;;;;;;;;;;;;;6.19;100.00;100594.00;6244852;23;20274;-80
2022/12/03 07:03:08;;;;;;;;;;;;;;;6.12;100.00;100595.50;6245526;23;19911;-79
2022/12/03 07:05:33;;;;;;;;;;;;;;;5.84;100.00;100599.59;6245154;23;19951;-81
2022/12/03 07:07:59;;;;;;;;;;;;;;;5.89;100.00;100599.25;6244598;23;19924;-81
2022/12/03 07:10:24;;;;;;;;;;;;;;;6.08;100.00;100602.81;6250589;23;19911;-81
2022/12/03 07:12:50;;;;;;;;;;;;;;;6.07;100.00;100605.56;6244894;23;19907;-81
2022/12/03 07:15:15;;;;;;;;;;;;;;;5.94;100.00;100610.19;6244942;23;20027;-81
2022/12/03 07:17:40;;;;;;;;;;;;;;;5.90;100.00;100608.81;6245130;23;19912;-81
2022/12/03 07:20:06;;;;;;;;;;;;;;;6.10;100.00;100605.28;6217962;23;19911;-82
2022/12/03 07:22:32;;;;;;;;;;;;;;;5.97;100.00;100604.66;6245167;23;19912;-82
2022/12/03 07:24:58;;;;;;;;;;;;;;;5.99;100.00;100608.03;6245231;23;19977;-81
2022/12/03 07:27:24;;;;;;;;;;;;;;;5.97;100.00;100609.94;6244959;23;19915;-81
2022/12/03 07:29:49;;;;;;;;;;;;;;;5.92;100.00;100615.59;6245065;23;19912;-80
2022/12/03 07:32:14;;;;;;;;;;;;;;;5.84;100.00;100604.84;6246081;23;19991;-82
2022/12/03 07:34:40;;;;;;;;;;;;;;;6.07;100.00;100606.38;6245295;23;20287;-79
2022/12/03 07:37:05;;;;;;;;;;;;;;;6.07;100.00;100600.28;6243808;23;19919;-80
2022/12/03 07:39:30;;;;;;;;;;;;;;;5.82;100.00;100604.16;6245265;23;19971;-81
2022/12/03 07:41:56;;;;;;;;;;;;;;;5.99;100.00;100608.03;6218954;23;19911;-81
2022/12/03 07:44:21;;;;;;;;;;;;;;;6.04;100.00;100595.28;6245242;23;19912;-81
2022/12/03 07:46:47;;;;;;;;;;;;;;;5.97;100.00;100604.66;6246407;23;19907;-79
2022/12/03 07:49:12;;;;;;;;;;;;;;;5.76;100.00;100606.47;6220565;23;19938;-80
2022/12/03 07:51:38;;;;;;;;;;;;;;;5.93;100.00;100609.34;6245129;23;20258;-80
2022/12/03 07:54:03;;;;;;;;;;;;;;;5.88;100.00;100601.03;6245143;23;19954;-81
2022/12/03 07:56:29;;;;;;;;;;;;;;;6.05;100.00;100604.88;6244773;23;19915;-82
2022/12/03 07:58:54;;;;;;;;;;;;;;;5.98;100.00;100603.72;6180298;23;19916;-84
2022/12/03 08:01:19;;;;;;;;;;;;;;;5.89;100.00;100601.88;6238170;23;20334;-83
2022/12/03 08:03:45;;;;;;;;;;;;;;;5.82;100.00;100596.28;6238574;23;19918;-83
2022/12/03 08:06:10;;;;;;;;;;;;;;;6.00;100.00;100609.69;6239538;23;19915;-83
2022/12/03 08:08:35;;;;;;;;;;;;;;;5.84;100.00;100601.38;6238643;23;19916;-82
2022/12/03 08:11:01;;;;;;;;;;;;;;;5.80;100.00;100602.63;6237494;23;19958;-85
2022/12/03 08:13:27;;;;;;;;;;;;;;;5.72;100.00;100606.75;6211544;23;20375;-85
2022/12/03 08:15:54;;;;;;;;;;;;;;;5.86;100.00;100602.97;6212119;23;19915;-83
2022/12/03 08:18:20;;;;;;;;;;;;;;;5.95;100.00;100601.34;6242118;23;19969;-83
2022/12/03 08:20:47;;;;;;;;;;;;;;;5.98;100.00;100595.81;6245061;23;19915;-83
2022/12/03 08:23:22;;;;;;;;;;;;;;;5.98;100.00;100601.09;6255630;23;20255;-82
2022/12/03 08:25:49;;;;;;;;;;;;;;;6.19;100.00;100588.72;6257388;23;19927;-82
2022/12/03 08:28:18;;;;;;;;;;;;;;;6.13;100.00;100591.91;6257162;23;19931;-84
2022/12/03 08:30:59;;;;;;;;;;;;;;;6.29;100.00;100594.88;6260558;23;19912;-82
2022/12/03 08:33:27;;;;;;;;;;;;;;;6.40;100.00;100597.38;6260258;23;19924;-83
2022/12/03 08:35:53;;;;;;;;;;;;;;;6.26;100.00;100597.78;6261693;23;19915;-81
2022/12/03 08:38:21;;;;;;;;;;;;;;;6.31;100.00;100597.34;6257592;23;19998;-81
2022/12/03 08:40:48;;;;;;;;;;;;;;;6.20;100.00;100593.84;6230717;23;19912;-84
2022/12/03 08:43:19;;;;;;;;;;;;;;;6.27;100.00;100580.16;6258838;23;19916;-82
2022/12/03 08:45:44;;;;;;;;;;;;;;;6.16;100.00;100578.47;6255527;23;19931;-82
2022/12/03 08:48:19;;;;;;;;;;;;;;;6.32;100.00;100588.50;6231206;23;19922;-83
2022/12/03 08:50:45;;;;;;;;;;;;;;;6.35;100.00;100583.81;6256821;23;19911;-82
2022/12/03 08:53:29;;;;;;;;;;;;;;;6.22;100.00;100588.47;6261998;22;19934;-86
2022/12/03 08:55:58;;;;;;;;;;;;;;;6.03;100.00;100598.91;6260583;23;19939;-83
2022/12/03 08:58:36;;;;;;;;;;;;;;;6.14;100.00;100589.13;6257329;23;20281;-84
2022/12/03 09:01:07;;;;;;;;;;;;;;;5.97;100.00;100595.00;6257245;23;19911;-83
2022/12/03 09:03:32;;;;;;;;;;;;;;;6.14;100.00;100590.91;6260930;23;19915;-84
2022/12/03 09:05:58;;;;;;;;;;;;;;;6.19;100.00;100586.09;6262358;23;20390;-84
2022/12/03 09:08:23;;;;;;;;;;;;;;;6.31;100.00;100587.66;6260048;23;19927;-84
2022/12/03 09:10:48;;;;;;;;;;;;;;;6.21;100.00;100573.63;6248428;23;19943;-84
2022/12/03 09:13:14;;;;;;;;;;;;;;;6.11;100.00;100578.03;6243997;23;20007;-84
2022/12/03 09:15:39;;;;;;;;;;;;;;;6.23;100.00;100576.97;6243865;23;19935;-85
2022/12/03 09:18:05;;;;;;;;;;;;;;;6.29;100.00;100573.81;6244271;23;20283;-85
2022/12/03 09:20:30;;;;;;;;;;;;;;;6.30;100.00;100583.34;6243649;23;19990;-87
2022/12/03 09:22:55;;;;;;;;;;;;;;;6.26;100.00;100584.63;6227887;23;20306;-87
2022/12/03 09:25:21;;;;;;;;;;;;;;;6.32;100.00;100585.88;6255125;23;19912;-85
2022/12/03 09:27:46;;;;;;;;;;;;;;;6.25;100.00;100590.84;6255579;23;19912;-84
2022/12/03 09:30:11;;;;;;;;;;;;;;;6.34;100.00;100589.19;6222548;23;19931;-85
2022/12/03 09:32:37;;;;;;;;;;;;;;;6.36;100.00;100590.75;6252367;23;19919;-87
2022/12/03 09:35:03;;;;;;;;;;;;;;;6.17;100.00;100583.59;6250526;23;20228;-86
2022/12/03 09:37:28;;;;;;;;;;;;;;;6.13;100.00;100586.63;6251527;23;19973;-83
2022/12/03 09:39:53;;;;;;;;;;;;;;;6.07;100.00;100585.34;6251603;23;19914;-87
2022/12/03 09:42:19;;;;;;;;;;;;;;;5.92;100.00;100589.31;6242628;23;20332;-86
2022/12/03 09:44:44;;;;;;;;;;;;;;;6.09;100.00;100585.22;6216191;23;19912;-86
2022/12/03 09:47:10;;;;;;;;;;;;;;;6.34;100.00;100582.13;6217343;23;19980;-85
2022/12/03 09:49:37;;;;;;;;;;;;;;;6.23;100.00;100579.63;6244054;23;20235;-84
2022/12/03 09:52:04;;;;;;;;;;;;;;;6.06;100.00;100585.50;6243522;23;19919;-85
2022/12/03 09:54:31;;;;;;;;;;;;;;;6.28;100.00;100590.56;6243203;23;19911;-84
2022/12/03 09:56:58;;;;;;;;;;;;;;;6.08;100.00;100584.38;6244346;23;19941;-86
2022/12/03 09:59:25;;;;;;;;;;;;;;;5.96;100.00;100576.72;6242713;23;20294;-84
2022/12/03 10:01:51;;;;;;;;;;;;;;;6.19;100.00;100565.88;6216504;23;19911;-83
2022/12/03 10:04:17;;;;;;;;;;;;;;;6.24;100.00;100554.94;6242903;23;19915;-86
2022/12/03 10:06:42;;;;;;;;;;;;;;;6.35;100.00;100548.75;6243019;23;19915;-85
2022/12/03 10:09:10;;;;;;;;;;;;;;;6.49;100.00;100545.75;6243042;23;20327;-85
2022/12/03 10:11:35;;;;;;;;;;;;;;;6.43;100.00;100549.72;6242248;23;19957;-84
2022/12/03 10:14:00;;;;;;;;;;;;;;;6.63;100.00;100540.06;6242197;23;19915;-84
2022/12/03 10:16:28;;;;;;;;;;;;;;;6.71;100.00;100538.44;6242097;23;19923;-85
2022/12/03 10:18:55;;;;;;;;;;;;;;;6.67;100.00;100537.03;6242586;23;19915;-83
2022/12/03 10:21:27;;;;;;;;;;;;;;;6.48;100.00;100537.00;6242425;23;19986;-85
2022/12/03 10:24:12;;;;;;;;;;;;;;;6.66;100.00;100532.72;6241904;23;19947;-85
2022/12/03 10:26:39;;;;;;;;;;;;;;;6.72;100.00;100537.47;6215915;23;19911;-83
2022/12/03 10:29:10;;;;;;;;;;;;;;;6.82;100.00;100544.53;6242469;23;20327;-83
2022/12/03 10:31:36;;;;;;;;;;;;;;;6.62;100.00;100539.25;6242448;23;19911;-84
2022/12/03 10:34:01;;;;;;;;;;;;;;;6.62;100.00;100539.25;6243830;23;19911;-84
2022/12/03 10:36:27;;;;;;;;;;;;;;;6.51;100.00;100534.09;6243200;23;19915;-83
2022/12/03 10:39:12;;;;;;;;;;;;;;;6.67;100.00;100531.78;6243059;23;19914;-85
2022/12/03 10:41:38;;;;;;;;;;;;;;;6.58;100.00;100532.59;6243555;23;19916;-86
2022/12/03 10:44:10;;;;;;;;;;;;;;;6.60;100.00;100529.81;6244070;23;19911;-83
2022/12/03 10:46:35;;;;;;;;;;;;;;;6.79;100.00;100534.28;6242920;23;19959;-85
2022/12/03 10:49:08;;;;;;;;;;;;;;;6.84;100.00;100519.72;6243282;23;19912;-86
2022/12/03 10:51:34;;;;;;;;;;;;;;;6.93;100.00;100524.16;6243650;23;19915;-84
2022/12/03 10:54:00;;;;;;;;;;;;;;;6.65;100.00;100523.19;6218309;23;19915;-85
2022/12/03 10:56:26;;;;;;;;;;;;;;;6.62;100.00;100517.34;6243188;23;20235;-83
2022/12/03 10:58:52;;;;;;;;;;;;;;;6.54;100.00;100514.56;6242426;23;19918;-82
2022/12/03 11:01:21;;;;;;;;;;;;;;;6.59;100.00;100513.22;6242489;23;19995;-86
2022/12/03 11:03:46;;;;;;;;;;;;;;;6.79;100.00;100521.13;6243010;23;19939;-83
2022/12/03 11:06:19;;;;;;;;;;;;;;;6.95;100.00;100513.50;6242326;23;19914;-84
2022/12/03 11:08:46;;;;;;;;;;;;;;;6.78;100.00;100522.06;6241711;23;19911;-85
2022/12/03 11:11:16;;;;;;;;;;;;;;;6.76;100.00;100525.66;6241530;23;19990;-84
2022/12/03 11:13:42;;;;;;;;;;;;;;;6.68;100.00;100529.97;6218749;23;19950;-83
2022/12/03 11:16:07;;;;;;;;;;;;;;;6.79;100.00;100523.75;6246046;23;19915;-86
2022/12/03 11:18:36;;;;;;;;;;;;;;;6.54;100.00;100510.13;6246121;23;20286;-83
2022/12/03 11:21:03;;;;;;;;;;;;;;;6.50;100.00;100498.22;6215873;23;20453;-84
2022/12/03 11:23:44;;;;;;;;;;;;;;;6.65;100.00;100507.38;6122275;23;19937;-83
2022/12/03 11:26:10;;;;;;;;;;;;;;;6.71;100.00;100498.09;6238695;23;20389;-83
2022/12/03 11:28:36;;;;;;;;;;;;;;;6.79;100.00;100497.41;6238884;23;19907;-84
2022/12/03 11:31:07;;;;;;;;;;;;;;;6.69;100.00;100487.69;6238676;23;19908;-84
2022/12/03 11:33:38;;;;;;;;;;;;;;;6.51;100.00;100489.34;6238581;23;19911;-85
2022/12/03 11:36:03;;;;;;;;;;;;;;;6.65;100.00;100491.59;6239617;23;19911;-83
2022/12/03 11:38:44;;;;;;;;;;;;;;;6.52;100.00;100496.28;6240106;23;19916;-83
2022/12/03 11:41:11;;;;;;;;;;;;;;;6.52;100.00;100491.03;6238822;23;19922;-85
2022/12/03 11:44:00;;;;;;;;;;;;;;;6.62;100.00;100489.22;6240217;23;19986;-83
2022/12/03 11:46:36;;;;;;;;;;;;;;;6.54;100.00;100496.13;6169980;23;19919;-84
2022/12/03 11:49:14;;;;;;;;;;;;;;;6.64;100.00;100502.25;6240185;23;19918;-83
2022/12/03 11:51:42;;;;;;;;;;;;;;;6.73;100.00;100501.41;6239114;23;19941;-84
2022/12/03 11:54:13;;;;;;;;;;;;;;;6.71;100.00;100496.28;6237743;23;19908;-83
2022/12/03 11:56:42;;;;;;;;;;;;;;;6.57;100.00;100504.59;6241396;23;19911;-84
2022/12/03 11:59:11;;;;;;;;;;;;;;;6.79;100.00;100497.41;6240972;23;19912;-85
2022/12/03 12:01:38;;;;;;;;;;;;;;;6.60;100.00;100491.16;6241620;23;19918;-82
2022/12/03 12:04:05;;;;;;;;;;;;;;;6.66;100.00;100482.69;6225260;23;20235;-85
2022/12/03 12:06:41;;;;;;;;;;;;;;;6.66;100.00;100480.06;6248053;23;19911;-85
2022/12/03 12:09:06;;;;;;;;;;;;;;;6.97;100.00;100469.38;6248482;23;19918;-85
2022/12/03 12:11:32;;;;;;;;;;;;;;;7.22;100.00;100474.88;6248763;23;20291;-84
2022/12/03 12:13:59;;;;;;;;;;;;;;;7.10;100.00;100475.19;6223299;23;19912;-85
2022/12/03 12:16:48;;;;;;;;;;;;;;;7.13;100.00;100472.28;6248817;23;19912;-85
2022/12/03 12:19:32;;;;;;;;;;;;;;;7.14;100.00;100471.31;6248349;23;19918;-86
2022/12/03 12:22:13;;;;;;;;;;;;;;;6.86;100.00;100467.72;6248222;23;20331;-85
2022/12/03 12:24:50;;;;;;;;;;;;;;;6.86;100.00;100472.19;6248529;23;19911;-82
2022/12/03 12:27:20;;;;;;;;;;;;;;;6.94;100.00;100480.19;6248517;23;19911;-82
2022/12/03 12:29:58;;;;;;;;;;;;;;;7.08;100.00;100466.59;6249893;23;19911;-85
2022/12/03 12:32:37;;;;;;;;;;;;;;;7.17;100.00;100460.47;6248258;23;20300;-85
2022/12/03 12:35:12;;;;;;;;;;;;;;;7.01;100.00;100461.06;6247866;23;19943;-83
2022/12/03 12:37:52;;;;;;;;;;;;;;;7.29;100.00;100454.09;6247825;23;19918;-81
2022/12/03 12:40:19;;;;;;;;;;;;;;;7.34;100.00;100443.94;6247946;23;19996;-85
2022/12/03 12:42:52;;;;;;;;;;;;;;;6.98;100.00;100447.34;6247680;23;19908;-82
2022/12/03 12:45:19;;;;;;;;;;;;;;;6.91;100.00;100444.44;6248303;23;19953;-86
2022/12/03 12:47:48;;;;;;;;;;;;;;;7.10;100.00;100438.28;6247857;23;19912;-81